createdAt,value
2022-10-11T00:19:38.927Z,100
2022-10-11T00:39:38.875Z,100
2022-10-11T00:59:38.846Z,100
2022-10-11T01:39:38.826Z,100
2022-10-11T01:59:38.758Z,100
2022-10-11T02:19:38.726Z,100
2022-10-11T02:39:38.701Z,100
2022-10-11T02:59:38.671Z,100
2022-10-11T03:19:38.640Z,100
2022-10-11T03:39:38.617Z,100
2022-10-11T03:59:38.588Z,100
2022-10-11T04:19:38.571Z,100
2022-10-11T04:39:38.555Z,100
2022-10-11T04:59:38.511Z,100
2022-10-11T05:19:38.476Z,100
2022-10-11T05:39:38.466Z,100
2022-10-11T05:59:38.425Z,100
2022-10-11T06:19:38.414Z,100
2022-10-11T06:39:38.382Z,100
2022-10-11T06:59:38.354Z,100
2022-10-11T07:19:38.319Z,100
2022-10-11T07:39:38.298Z,100
2022-10-11T07:59:38.268Z,100
2022-10-11T08:19:38.214Z,92.8
2022-10-11T08:39:38.195Z,81
2022-10-11T08:59:38.144Z,73.8
2022-10-11T09:19:38.098Z,66.5
2022-10-11T09:39:38.062Z,64.7
2022-10-11T09:59:38.024Z,63.4
2022-10-11T10:19:41.093Z,57.6
2022-10-11T10:39:37.942Z,58.7
2022-10-11T10:59:37.905Z,54.4
2022-10-11T11:19:37.878Z,59
2022-10-11T11:39:37.832Z,52.7
2022-10-11T11:59:37.789Z,48
2022-10-11T12:19:37.765Z,43.7
2022-10-11T12:39:37.708Z,48.3
2022-10-11T12:59:37.664Z,46.4
2022-10-11T13:19:37.687Z,40.3
2022-10-11T13:39:37.587Z,46.5
2022-10-11T13:59:37.546Z,48
2022-10-11T15:59:37.303Z,49.8
2022-10-11T16:19:37.275Z,58.2
2022-10-11T16:39:37.232Z,66.2
2022-10-11T16:59:37.190Z,70.7
2022-10-11T17:19:39.204Z,76.6
2022-10-11T17:39:37.139Z,83.6
2022-10-11T17:59:37.093Z,88.7
2022-10-11T18:19:37.054Z,92.2
2022-10-11T18:39:37.028Z,94.1
2022-10-11T18:59:36.988Z,95.3
2022-10-11T19:19:36.969Z,96.8
2022-10-11T19:39:36.951Z,97.5
2022-10-11T19:59:36.910Z,98.4
2022-10-11T20:19:36.888Z,98.8
2022-10-11T20:39:36.844Z,99.2
2022-10-11T20:59:36.820Z,99.5
2022-10-11T21:19:36.783Z,99.7
2022-10-11T21:39:36.767Z,100
2022-10-11T21:59:36.732Z,100
2022-10-11T22:19:36.712Z,100
2022-10-11T22:39:36.679Z,100
2022-10-11T22:59:36.643Z,100
2022-10-11T23:19:36.629Z,100
2022-10-11T23:39:36.594Z,100
2022-10-11T23:59:36.569Z,100
